createdAt,value
2022-09-13T00:02:12.677Z,100.00
2022-09-13T00:05:18.990Z,100.00
2022-09-13T00:08:25.668Z,100.00
2022-09-13T00:11:33.454Z,100.00
2022-09-13T00:14:39.818Z,100.00
2022-09-13T00:17:46.506Z,100.00
2022-09-13T00:20:52.964Z,100.00
2022-09-13T00:23:59.279Z,100.00
2022-09-13T00:27:08.724Z,100.00
2022-09-13T00:30:15.653Z,100.00
2022-09-13T00:33:21.746Z,100.00
2022-09-13T00:36:28.420Z,100.00
2022-09-13T00:39:34.866Z,100.00
2022-09-13T00:42:42.532Z,100.00
2022-09-13T00:45:50.004Z,100.00
2022-09-13T00:49:01.003Z,100.00
2022-09-13T00:52:10.327Z,100.00
2022-09-13T00:55:22.405Z,100.00
2022-09-13T00:58:35.102Z,100.00
2022-09-13T01:01:46.218Z,100.00
2022-09-13T01:04:52.803Z,100.00
2022-09-13T01:08:00.925Z,100.00
2022-09-13T01:11:13.552Z,100.00
2022-09-13T01:14:22.044Z,100.00
2022-09-13T01:17:29.735Z,100.00
2022-09-13T01:20:47.844Z,100.00
2022-09-13T01:24:24.322Z,100.00
2022-09-13T01:27:39.563Z,100.00
2022-09-13T01:30:55.655Z,100.00
2022-09-13T01:34:17.958Z,100.00
2022-09-13T01:37:44.843Z,100.00
2022-09-13T01:41:06.204Z,100.00
2022-09-13T01:44:28.571Z,100.00
2022-09-13T01:47:47.266Z,100.00
2022-09-13T01:51:02.569Z,100.00
2022-09-13T01:54:19.111Z,100.00
2022-09-13T01:57:33.047Z,100.00
2022-09-13T02:00:47.471Z,100.00
2022-09-13T02:03:59.755Z,100.00
2022-09-13T02:07:14.650Z,100.00
2022-09-13T02:10:25.538Z,100.00
2022-09-13T02:13:38.161Z,100.00
2022-09-13T02:16:51.119Z,100.00
2022-09-13T02:20:00.848Z,100.00
2022-09-13T02:23:11.657Z,100.00
2022-09-13T02:26:19.685Z,100.00
2022-09-13T02:29:29.036Z,100.00
2022-09-13T02:32:38.557Z,100.00
2022-09-13T02:35:52.403Z,100.00
2022-09-13T02:39:01.259Z,100.00
2022-09-13T02:42:15.647Z,100.00
2022-09-13T02:45:29.190Z,100.00
2022-09-13T02:48:44.668Z,100.00
2022-09-13T02:51:58.645Z,100.00
2022-09-13T02:55:17.417Z,100.00
2022-09-13T02:58:31.071Z,100.00
2022-09-13T03:01:39.810Z,100.00
2022-09-13T03:04:46.013Z,100.00
2022-09-13T03:07:54.323Z,100.00
2022-09-13T03:11:12.595Z,100.00
2022-09-13T03:14:28.943Z,100.00
2022-09-13T03:17:55.312Z,100.00
2022-09-13T03:21:09.306Z,100.00
2022-09-13T03:24:24.806Z,100.00
2022-09-13T03:27:36.757Z,100.00
2022-09-13T03:30:51.311Z,100.00
2022-09-13T03:34:00.906Z,100.00
2022-09-13T03:37:16.127Z,100.00
2022-09-13T03:40:35.916Z,100.00
2022-09-13T03:43:47.697Z,100.00
2022-09-13T03:46:58.882Z,100.00
2022-09-13T03:50:08.534Z,100.00
2022-09-13T03:53:20.706Z,100.00
2022-09-13T03:56:28.439Z,100.00
2022-09-13T03:59:35.475Z,100.00
2022-09-13T04:02:41.907Z,100.00
2022-09-13T04:05:48.611Z,100.00
2022-09-13T04:08:54.916Z,100.00
2022-09-13T04:12:02.809Z,100.00
2022-09-13T04:15:10.209Z,100.00
2022-09-13T04:18:16.174Z,100.00
2022-09-13T04:21:26.839Z,100.00
2022-09-13T04:24:33.618Z,100.00
2022-09-13T04:27:41.212Z,100.00
2022-09-13T04:30:47.632Z,100.00
2022-09-13T04:33:54.975Z,100.00
2022-09-13T04:37:01.332Z,100.00
2022-09-13T04:40:09.133Z,100.00
2022-09-13T04:43:16.449Z,100.00
2022-09-13T04:46:22.856Z,100.00
2022-09-13T04:49:28.767Z,100.00
2022-09-13T04:52:35.194Z,100.00
2022-09-13T04:55:41.483Z,100.00
2022-09-13T04:58:49.336Z,100.00
2022-09-13T05:01:56.178Z,100.00
2022-09-13T05:05:02.398Z,100.00
2022-09-13T05:08:08.672Z,100.00
2022-09-13T05:11:15.129Z,100.00
2022-09-13T05:14:22.618Z,100.00
2022-09-13T05:17:31.516Z,100.00
2022-09-13T05:20:37.602Z,100.00
2022-09-13T05:23:43.983Z,100.00
2022-09-13T05:26:50.577Z,100.00
2022-09-13T05:29:58.164Z,100.00
2022-09-13T05:33:04.343Z,100.00
2022-09-13T05:36:10.960Z,100.00
2022-09-13T05:39:31.988Z,100.00
2022-09-13T05:42:44.945Z,100.00
2022-09-13T05:45:53.387Z,100.00
2022-09-13T05:49:00.488Z,100.00
2022-09-13T05:52:06.987Z,100.00
2022-09-13T05:55:13.347Z,100.00
2022-09-13T05:58:19.865Z,100.00
2022-09-13T06:01:29.421Z,100.00
2022-09-13T06:04:37.094Z,98.32
2022-09-13T06:07:44.288Z,99.10
2022-09-13T06:10:56.331Z,99.02
2022-09-13T06:14:02.568Z,99.43
2022-09-13T06:17:10.133Z,97.66
2022-09-13T06:20:16.371Z,96.71
2022-09-13T06:23:22.758Z,96.96
2022-09-13T06:26:30.027Z,97.59
2022-09-13T06:29:36.203Z,91.73
2022-09-13T06:32:43.727Z,93.73
2022-09-13T06:35:49.867Z,93.14
2022-09-13T06:38:57.100Z,96.36
2022-09-13T06:42:03.423Z,89.41
2022-09-13T06:45:10.792Z,89.67
2022-09-13T06:48:20.908Z,91.40
2022-09-13T06:51:27.846Z,91.54
2022-09-13T06:54:34.167Z,92.60
2022-09-13T06:57:40.427Z,90.58
2022-09-13T07:00:46.867Z,90.23
2022-09-13T07:03:56.323Z,89.70
2022-09-13T07:07:02.715Z,86.74
2022-09-13T07:10:10.140Z,87.24
2022-09-13T07:13:16.219Z,83.83
2022-09-13T07:16:24.619Z,79.75
2022-09-13T07:19:31.907Z,76.60
2022-09-13T07:22:38.139Z,78.17
2022-09-13T07:25:44.286Z,76.02
2022-09-13T07:28:54.790Z,75.44
2022-09-13T07:32:00.917Z,76.36
2022-09-13T07:35:08.963Z,76.71
2022-09-13T07:38:14.883Z,75.21
2022-09-13T07:41:22.817Z,75.62
2022-09-13T07:44:28.915Z,74.26
2022-09-13T07:47:35.176Z,71.42
2022-09-13T07:50:43.507Z,70.10
2022-09-13T07:53:56.493Z,70.38
2022-09-13T07:57:03.736Z,70.75
2022-09-13T08:00:11.566Z,69.54
2022-09-13T08:03:18.058Z,67.30
2022-09-13T08:06:27.883Z,68.39
2022-09-13T08:09:34.154Z,67.55
2022-09-13T08:12:40.525Z,67.64
2022-09-13T08:15:46.954Z,66.80
2022-09-13T08:18:54.824Z,66.64
2022-09-13T08:22:02.511Z,66.72
2022-09-13T08:25:09.319Z,68.49
2022-09-13T08:28:17.929Z,63.25
2022-09-13T08:31:24.176Z,63.52
2022-09-13T08:34:30.366Z,61.72
2022-09-13T08:37:38.017Z,59.35
2022-09-13T08:40:50.584Z,58.43
2022-09-13T08:44:01.172Z,59.24
2022-09-13T08:47:28.578Z,57.89
2022-09-13T08:50:37.451Z,57.92
2022-09-13T08:53:50.372Z,54.64
2022-09-13T08:57:04.446Z,55.35
2022-09-13T09:00:20.985Z,56.00
2022-09-13T09:03:36.286Z,54.63
2022-09-13T09:06:43.855Z,56.72
2022-09-13T09:09:56.942Z,53.62
2022-09-13T09:13:07.608Z,52.94
2022-09-13T09:16:26.785Z,52.82
2022-09-13T09:19:37.860Z,52.80
2022-09-13T09:22:47.407Z,51.78
2022-09-13T09:25:59.281Z,53.50
2022-09-13T09:29:24.688Z,53.18
2022-09-13T09:32:49.243Z,54.97
2022-09-13T09:36:02.523Z,51.35
2022-09-13T09:39:13.018Z,51.03
2022-09-13T09:42:23.133Z,50.79
2022-09-13T09:45:32.119Z,49.81
2022-09-13T09:48:44.512Z,48.56
2022-09-13T09:51:50.824Z,49.63
2022-09-13T09:55:03.891Z,49.57
2022-09-13T09:58:12.985Z,48.35
2022-09-13T10:01:24.522Z,45.45
2022-09-13T10:04:31.127Z,44.72
2022-09-13T10:07:37.393Z,45.13
2022-09-13T10:10:45.847Z,44.12
2022-09-13T10:14:02.398Z,43.55
2022-09-13T10:17:18.019Z,43.31
2022-09-13T10:20:27.497Z,44.01
2022-09-13T10:23:34.602Z,43.94
2022-09-13T10:26:41.001Z,43.45
2022-09-13T10:29:52.625Z,43.15
2022-09-13T10:32:59.633Z,44.09
2022-09-13T10:36:09.592Z,43.08
2022-09-13T10:39:20.486Z,41.48
2022-09-13T10:42:30.062Z,41.28
2022-09-13T10:45:38.857Z,41.71
2022-09-13T10:48:48.079Z,42.72
2022-09-13T10:51:54.735Z,41.58
2022-09-13T10:55:26.927Z,42.62
2022-09-13T10:58:33.784Z,40.62
2022-09-13T11:01:49.214Z,41.62
2022-09-13T11:05:10.835Z,42.01
2022-09-13T11:08:34.627Z,40.96
2022-09-13T11:11:49.401Z,42.49
2022-09-13T11:15:05.800Z,43.67
2022-09-13T11:18:52.073Z,42.37
2022-09-13T11:22:17.774Z,41.94
2022-09-13T11:25:34.208Z,43.09
2022-09-13T11:28:54.082Z,42.48
2022-09-13T11:32:09.749Z,41.66
2022-09-13T11:35:48.389Z,41.45
2022-09-13T11:39:10.850Z,42.59
2022-09-13T11:42:31.192Z,42.43
2022-09-13T11:45:46.460Z,43.03
2022-09-13T11:49:12.924Z,43.30
2022-09-13T11:52:30.587Z,42.64
2022-09-13T11:55:42.739Z,43.50
2022-09-13T11:58:54.378Z,43.10
2022-09-13T12:02:05.542Z,42.09
2022-09-13T12:05:22.486Z,42.42
2022-09-13T12:08:33.623Z,43.16
2022-09-13T12:11:45.059Z,41.40
2022-09-13T12:15:01.116Z,42.39
2022-09-13T12:18:14.712Z,43.17
2022-09-13T12:21:24.245Z,42.70
2022-09-13T12:24:39.431Z,42.52
2022-09-13T12:27:54.294Z,41.42
2022-09-13T12:31:06.088Z,42.02
2022-09-13T12:34:21.503Z,41.16
2022-09-13T12:38:03.452Z,42.17
2022-09-13T12:41:30.733Z,42.80
2022-09-13T12:44:50.680Z,42.32
2022-09-13T12:48:16.871Z,43.09
2022-09-13T12:51:37.970Z,42.94
2022-09-13T12:55:19.735Z,42.24
2022-09-13T12:59:04.524Z,42.01
2022-09-13T13:02:28.650Z,42.55
2022-09-13T13:05:36.748Z,42.83
2022-09-13T13:08:52.635Z,42.23
2022-09-13T13:11:59.829Z,41.69
2022-09-13T13:15:49.918Z,42.58
2022-09-13T13:18:58.367Z,42.03
2022-09-13T13:22:37.843Z,41.60
2022-09-13T13:26:13.537Z,41.33
2022-09-13T13:29:23.349Z,42.03
2022-09-13T13:32:30.818Z,40.60
2022-09-13T13:35:36.949Z,41.55
2022-09-13T13:38:48.936Z,40.22
2022-09-13T13:41:56.841Z,40.42
2022-09-13T13:45:18.025Z,40.26
2022-09-13T13:48:39.107Z,40.87
2022-09-13T13:51:45.085Z,41.24
2022-09-13T13:55:04.510Z,40.85
2022-09-13T13:58:29.487Z,40.56
2022-09-13T14:01:40.796Z,40.80
2022-09-13T14:05:06.984Z,41.28
2022-09-13T14:08:32.966Z,41.30
2022-09-13T14:11:51.221Z,41.33
2022-09-13T14:15:08.450Z,40.05
2022-09-13T14:18:40.551Z,40.53
2022-09-13T14:22:07.644Z,41.24
2022-09-13T14:25:25.110Z,41.48
2022-09-13T14:28:33.374Z,40.17
2022-09-13T14:31:39.664Z,40.24
2022-09-13T14:34:54.495Z,39.81
2022-09-13T14:38:19.708Z,37.54
2022-09-13T14:41:32.737Z,36.21
2022-09-13T14:44:39.387Z,34.92
2022-09-13T14:47:53.697Z,35.06
2022-09-13T14:51:03.906Z,39.30
2022-09-13T14:54:18.297Z,40.13
2022-09-13T14:57:30.410Z,41.42
2022-09-13T15:00:46.919Z,41.19
2022-09-13T15:03:53.497Z,42.22
2022-09-13T15:07:10.883Z,43.65
2022-09-13T15:10:26.829Z,44.04
2022-09-13T15:13:35.298Z,43.93
2022-09-13T15:16:49.256Z,43.87
2022-09-13T15:20:05.300Z,43.39
2022-09-13T15:23:16.810Z,44.13
2022-09-13T15:26:26.729Z,43.39
2022-09-13T15:29:35.088Z,43.39
2022-09-13T15:32:43.200Z,43.78
2022-09-13T15:35:50.052Z,44.11
2022-09-13T15:39:05.804Z,43.33
2022-09-13T15:42:13.923Z,43.77
2022-09-13T15:45:22.079Z,43.99
2022-09-13T15:48:30.663Z,45.09
2022-09-13T15:51:38.951Z,45.71
2022-09-13T15:54:49.339Z,45.44
2022-09-13T15:57:56.988Z,46.12
2022-09-13T16:01:04.159Z,45.49
2022-09-13T16:04:10.132Z,46.22
2022-09-13T16:07:17.500Z,45.79
2022-09-13T16:10:24.443Z,46.39
2022-09-13T16:13:31.814Z,46.39
2022-09-13T16:16:37.744Z,46.73
2022-09-13T16:19:44.056Z,47.19
2022-09-13T16:22:50.730Z,47.69
2022-09-13T16:26:01.593Z,47.80
2022-09-13T16:29:09.837Z,48.12
2022-09-13T16:32:16.123Z,48.05
2022-09-13T16:35:22.478Z,47.25
2022-09-13T16:38:28.935Z,47.41
2022-09-13T16:41:35.366Z,48.07
2022-09-13T16:44:43.542Z,47.97
2022-09-13T16:47:49.907Z,48.48
2022-09-13T16:50:56.100Z,47.73
2022-09-13T16:54:02.918Z,47.77
2022-09-13T16:57:10.580Z,48.24
2022-09-13T17:00:20.163Z,48.24
2022-09-13T17:03:26.840Z,48.27
2022-09-13T17:06:32.857Z,48.38
2022-09-13T17:09:40.720Z,48.75
2022-09-13T17:12:46.738Z,48.64
2022-09-13T17:15:56.690Z,48.21
2022-09-13T17:19:06.282Z,48.15
2022-09-13T17:22:13.099Z,48.41
2022-09-13T17:25:20.947Z,48.63
2022-09-13T17:28:27.819Z,49.26
2022-09-13T17:31:35.804Z,50.55
2022-09-13T17:34:42.446Z,51.45
2022-09-13T17:37:48.804Z,50.74
2022-09-13T17:41:02.396Z,50.73
2022-09-13T17:44:09.218Z,50.35
2022-09-13T17:47:17.124Z,50.44
2022-09-13T17:50:23.643Z,50.55
2022-09-13T17:53:29.708Z,50.49
2022-09-13T17:56:37.424Z,51.07
2022-09-13T17:59:43.808Z,51.39
2022-09-13T18:02:51.250Z,53.60
2022-09-13T18:05:58.224Z,55.23
2022-09-13T18:09:04.783Z,57.12
2022-09-13T18:12:11.871Z,57.72
2022-09-13T18:15:18.469Z,58.34
2022-09-13T18:18:26.397Z,59.49
2022-09-13T18:21:32.512Z,57.79
2022-09-13T18:24:39.018Z,58.85
2022-09-13T18:27:45.772Z,59.01
2022-09-13T18:30:56.318Z,58.38
2022-09-13T18:34:06.491Z,60.57
2022-09-13T18:37:12.948Z,59.51
2022-09-13T18:40:19.431Z,59.35
2022-09-13T18:43:25.775Z,61.91
2022-09-13T18:46:33.125Z,61.95
2022-09-13T18:49:40.600Z,61.21
2022-09-13T18:52:46.760Z,64.62
2022-09-13T18:55:53.231Z,63.45
2022-09-13T18:59:01.736Z,67.42
2022-09-13T19:02:07.987Z,70.93
2022-09-13T19:05:15.742Z,73.46
2022-09-13T19:08:22.270Z,77.15
2022-09-13T19:11:46.496Z,72.95
2022-09-13T19:14:53.959Z,75.65
2022-09-13T19:18:00.390Z,75.13
2022-09-13T19:21:09.838Z,79.31
2022-09-13T19:24:19.414Z,78.40
2022-09-13T19:27:26.812Z,80.16
2022-09-13T19:30:35.280Z,81.87
2022-09-13T19:33:42.294Z,81.75
2022-09-13T19:36:52.622Z,81.46
2022-09-13T19:39:59.293Z,86.11
2022-09-13T19:43:05.916Z,86.15
2022-09-13T19:46:13.825Z,85.40
2022-09-13T19:49:20.029Z,87.00
2022-09-13T19:52:27.719Z,87.42
2022-09-13T19:55:33.843Z,88.20
2022-09-13T19:58:40.368Z,86.99
2022-09-13T20:01:47.982Z,88.13
2022-09-13T20:04:54.275Z,90.35
2022-09-13T20:08:02.306Z,88.61
2022-09-13T20:11:10.125Z,89.69
2022-09-13T20:14:19.352Z,91.02
2022-09-13T20:17:26.403Z,94.46
2022-09-13T20:20:35.527Z,92.52
2022-09-13T20:23:44.181Z,92.25
2022-09-13T20:26:52.531Z,90.78
2022-09-13T20:29:58.847Z,93.13
2022-09-13T20:33:05.510Z,96.42
2022-09-13T20:36:15.113Z,97.41
2022-09-13T20:39:22.662Z,99.04
2022-09-13T20:42:29.264Z,97.97
2022-09-13T20:45:35.687Z,96.84
2022-09-13T20:48:44.606Z,98.32
2022-09-13T20:51:51.071Z,99.74
2022-09-13T20:54:59.357Z,100.00
2022-09-13T20:58:06.127Z,100.00
2022-09-13T21:01:15.140Z,99.87
2022-09-13T21:04:22.675Z,100.00
2022-09-13T21:07:46.146Z,99.13
2022-09-13T21:11:03.530Z,100.00
2022-09-13T21:14:10.383Z,99.88
2022-09-13T21:17:16.790Z,100.00
2022-09-13T21:20:23.251Z,100.00
2022-09-13T21:23:31.975Z,100.00
2022-09-13T21:26:42.394Z,100.00
2022-09-13T21:29:48.805Z,100.00
2022-09-13T21:32:54.895Z,100.00
2022-09-13T21:36:03.311Z,100.00
2022-09-13T21:39:09.586Z,100.00
2022-09-13T21:42:17.399Z,100.00
2022-09-13T21:45:24.050Z,100.00
2022-09-13T21:48:32.892Z,100.00
2022-09-13T21:51:40.354Z,100.00
2022-09-13T21:54:46.593Z,100.00
2022-09-13T21:57:54.408Z,100.00
2022-09-13T22:01:06.348Z,100.00
2022-09-13T22:04:16.810Z,100.00
2022-09-13T22:07:23.051Z,100.00
2022-09-13T22:10:29.649Z,100.00
2022-09-13T22:13:45.471Z,100.00
2022-09-13T22:16:53.320Z,100.00
2022-09-13T22:19:59.767Z,100.00
2022-09-13T22:23:06.407Z,100.00
2022-09-13T22:26:13.859Z,100.00
2022-09-13T22:29:22.441Z,100.00
2022-09-13T22:32:30.708Z,100.00
2022-09-13T22:35:36.920Z,100.00
2022-09-13T22:38:44.540Z,100.00
2022-09-13T22:41:50.849Z,100.00
2022-09-13T22:44:58.397Z,100.00
2022-09-13T22:48:04.271Z,100.00
2022-09-13T22:51:12.639Z,100.00
2022-09-13T22:54:20.144Z,100.00
2022-09-13T22:57:26.479Z,100.00
2022-09-13T23:00:34.340Z,100.00
2022-09-13T23:03:41.845Z,100.00
2022-09-13T23:06:48.826Z,100.00
2022-09-13T23:09:55.023Z,100.00
2022-09-13T23:13:01.723Z,100.00
2022-09-13T23:16:14.573Z,100.00
2022-09-13T23:19:22.609Z,100.00
2022-09-13T23:22:28.896Z,100.00
2022-09-13T23:25:35.795Z,100.00
2022-09-13T23:28:42.187Z,100.00
2022-09-13T23:31:50.768Z,100.00
2022-09-13T23:34:56.935Z,100.00
2022-09-13T23:38:03.453Z,100.00
2022-09-13T23:41:10.886Z,100.00
2022-09-13T23:44:17.422Z,100.00
2022-09-13T23:47:25.176Z,100.00
2022-09-13T23:50:32.066Z,100.00
2022-09-13T23:53:38.582Z,100.00
2022-09-13T23:56:45.227Z,100.00
2022-09-13T23:59:51.471Z,100.00
